createdAt,value
2018-12-15T00:01:01.904Z,952.60
2018-12-15T00:03:28.191Z,952.69
2018-12-15T00:05:54.483Z,952.79
2018-12-15T00:08:20.769Z,952.77
2018-12-15T00:10:47.043Z,952.82
2018-12-15T00:13:13.320Z,952.84
2018-12-15T00:15:39.768Z,952.78
2018-12-15T00:18:05.990Z,952.75
2018-12-15T00:20:32.275Z,952.74
2018-12-15T00:22:58.599Z,952.72
2018-12-15T00:25:24.878Z,952.70
2018-12-15T00:27:51.222Z,952.82
2018-12-15T00:30:17.496Z,952.76
2018-12-15T00:32:43.779Z,952.74
2018-12-15T00:35:10.074Z,952.62
2018-12-15T00:37:36.367Z,952.67
2018-12-15T00:40:02.642Z,952.60
2018-12-15T00:42:28.956Z,952.63
2018-12-15T00:44:55.222Z,952.64
2018-12-15T00:47:21.524Z,952.57
2018-12-15T00:49:47.798Z,952.55
2018-12-15T00:52:14.099Z,952.49
2018-12-15T00:54:40.388Z,952.56
2018-12-15T00:57:06.698Z,952.51
2018-12-15T00:59:32.989Z,952.46
2018-12-15T01:01:59.322Z,952.43
2018-12-15T01:04:25.601Z,952.51
2018-12-15T01:06:51.923Z,952.48
2018-12-15T01:09:18.188Z,952.50
2018-12-15T01:11:44.495Z,952.66
2018-12-15T01:14:10.779Z,952.53
2018-12-15T01:16:37.163Z,952.56
2018-12-15T01:19:03.447Z,952.54
2018-12-15T01:21:29.752Z,952.46
2018-12-15T01:23:56.028Z,952.47
2018-12-15T01:26:22.328Z,952.45
2018-12-15T01:28:48.627Z,952.55
2018-12-15T01:31:14.920Z,952.44
2018-12-15T01:33:41.196Z,952.30
2018-12-15T01:36:07.517Z,952.07
2018-12-15T01:38:33.814Z,952.28
2018-12-15T01:41:00.110Z,952.57
2018-12-15T01:43:26.399Z,952.43
2018-12-15T01:45:52.663Z,952.20
2018-12-15T01:48:18.948Z,952.23
2018-12-15T01:50:45.266Z,952.23
2018-12-15T01:53:11.564Z,952.09
2018-12-15T01:55:37.882Z,952.17
2018-12-15T01:58:04.173Z,952.27
2018-12-15T02:00:30.460Z,952.43
2018-12-15T02:02:56.818Z,952.42
2018-12-15T02:05:23.104Z,952.30
2018-12-15T02:07:49.381Z,952.28
2018-12-15T02:10:15.674Z,952.30
2018-12-15T02:12:41.958Z,952.10
2018-12-15T02:15:08.248Z,952.05
2018-12-15T02:17:34.536Z,952.17
2018-12-15T02:20:00.846Z,952.20
2018-12-15T02:22:27.140Z,952.00
2018-12-15T02:24:53.415Z,952.11
2018-12-15T02:27:19.738Z,952.13
2018-12-15T02:29:46.027Z,952.26
2018-12-15T02:32:12.309Z,952.07
2018-12-15T02:34:38.632Z,952.17
2018-12-15T02:37:04.925Z,952.19
2018-12-15T02:39:31.189Z,952.20
2018-12-15T02:41:57.524Z,952.21
2018-12-15T02:44:23.789Z,952.16
2018-12-15T02:46:50.074Z,952.08
2018-12-15T02:49:16.391Z,952.19
2018-12-15T02:51:42.669Z,952.20
2018-12-15T02:54:08.972Z,952.06
2018-12-15T02:56:35.250Z,952.00
2018-12-15T02:59:01.546Z,952.00
2018-12-15T03:01:27.810Z,951.88
2018-12-15T03:03:54.101Z,951.92
2018-12-15T03:06:20.428Z,951.97
2018-12-15T03:08:46.719Z,952.11
2018-12-15T03:11:13.001Z,952.05
2018-12-15T03:13:39.286Z,951.91
2018-12-15T03:16:05.580Z,951.96
2018-12-15T03:18:31.865Z,952.13
2018-12-15T03:20:58.139Z,952.07
2018-12-15T03:23:24.539Z,952.23
2018-12-15T03:25:50.818Z,952.17
2018-12-15T03:28:17.081Z,952.36
2018-12-15T03:30:43.374Z,952.29
2018-12-15T03:33:09.637Z,952.21
2018-12-15T03:35:35.953Z,952.27
2018-12-15T03:38:02.216Z,952.35
2018-12-15T03:40:28.511Z,952.19
2018-12-15T03:42:54.804Z,952.20
2018-12-15T03:45:21.113Z,952.21
2018-12-15T03:47:47.405Z,952.22
2018-12-15T03:50:13.681Z,952.12
2018-12-15T03:52:40.005Z,952.47
2018-12-15T03:55:06.303Z,952.29
2018-12-15T03:57:32.588Z,952.32
2018-12-15T03:59:58.871Z,952.10
2018-12-15T04:02:25.176Z,952.20
2018-12-15T04:04:51.473Z,951.95
2018-12-15T04:07:17.757Z,952.11
2018-12-15T04:09:44.047Z,952.29
2018-12-15T04:12:10.320Z,952.33
2018-12-15T04:14:36.599Z,952.23
2018-12-15T04:17:02.912Z,952.19
2018-12-15T04:19:29.203Z,952.17
2018-12-15T04:21:55.524Z,952.18
2018-12-15T04:24:21.790Z,952.03
2018-12-15T04:26:48.058Z,952.17
2018-12-15T04:29:14.339Z,952.18
2018-12-15T04:31:40.649Z,952.25
2018-12-15T04:34:06.922Z,952.22
2018-12-15T04:36:33.244Z,952.10
2018-12-15T04:38:59.492Z,952.15
2018-12-15T04:41:25.800Z,951.89
2018-12-15T04:43:52.075Z,952.14
2018-12-15T04:46:18.383Z,952.16
2018-12-15T04:48:44.666Z,951.90
2018-12-15T04:51:10.945Z,951.98
2018-12-15T04:53:37.220Z,951.94
2018-12-15T04:56:03.515Z,952.00
2018-12-15T04:58:29.797Z,952.18
2018-12-15T05:00:56.093Z,952.16
2018-12-15T05:03:22.947Z,952.12
2018-12-15T05:05:48.699Z,952.08
2018-12-15T05:08:14.972Z,952.10
2018-12-15T05:10:41.288Z,952.09
2018-12-15T05:13:07.582Z,952.15
2018-12-15T05:15:33.866Z,952.13
2018-12-15T05:18:00.145Z,952.21
2018-12-15T05:20:26.456Z,952.19
2018-12-15T05:22:52.734Z,952.08
2018-12-15T05:25:19.039Z,952.07
2018-12-15T05:27:45.308Z,952.12
2018-12-15T05:30:11.642Z,952.05
2018-12-15T05:32:37.916Z,952.22
2018-12-15T05:35:04.226Z,952.22
2018-12-15T05:37:30.509Z,952.10
2018-12-15T05:39:56.791Z,952.15
2018-12-15T05:42:23.086Z,952.16
2018-12-15T05:44:49.375Z,952.13
2018-12-15T05:47:15.664Z,952.12
2018-12-15T05:49:41.949Z,952.13
2018-12-15T05:52:08.253Z,952.17
2018-12-15T05:54:34.524Z,952.12
2018-12-15T05:57:00.838Z,952.00
2018-12-15T05:59:27.130Z,952.16
2018-12-15T06:01:53.414Z,952.22
2018-12-15T06:04:19.730Z,952.16
2018-12-15T06:06:46.033Z,952.06
2018-12-15T06:09:12.318Z,951.85
2018-12-15T06:11:38.596Z,952.15
2018-12-15T06:14:04.885Z,952.08
2018-12-15T06:16:31.185Z,952.06
2018-12-15T06:18:57.467Z,952.10
2018-12-15T06:21:23.757Z,951.99
2018-12-15T06:23:50.055Z,951.99
2018-12-15T06:26:16.344Z,952.05
2018-12-15T06:28:42.684Z,952.16
2018-12-15T06:31:08.984Z,952.21
2018-12-15T06:33:35.254Z,952.24
2018-12-15T06:36:01.575Z,952.29
2018-12-15T06:38:27.840Z,952.29
2018-12-15T06:40:54.123Z,952.36
2018-12-15T06:43:20.413Z,952.34
2018-12-15T06:45:46.692Z,952.41
2018-12-15T06:48:12.993Z,952.55
2018-12-15T06:50:39.270Z,952.41
2018-12-15T06:53:05.538Z,952.38
2018-12-15T06:55:31.833Z,952.46
2018-12-15T06:57:58.129Z,952.36
2018-12-15T07:00:24.440Z,952.34
2018-12-15T07:02:50.730Z,952.39
2018-12-15T07:05:17.003Z,952.47
2018-12-15T07:07:43.279Z,952.42
2018-12-15T07:10:09.572Z,952.37
2018-12-15T07:12:35.935Z,952.52
2018-12-15T07:15:02.138Z,952.52
2018-12-15T07:17:28.432Z,952.52
2018-12-15T07:19:54.707Z,952.49
2018-12-15T07:22:21.003Z,952.57
2018-12-15T07:24:47.299Z,952.54
2018-12-15T07:27:13.599Z,952.54
2018-12-15T07:29:39.905Z,952.55
2018-12-15T07:32:06.197Z,952.63
2018-12-15T07:34:32.491Z,952.49
2018-12-15T07:36:58.789Z,952.63
2018-12-15T07:39:25.065Z,952.64
2018-12-15T07:41:51.339Z,952.68
2018-12-15T07:44:17.628Z,952.67
2018-12-15T07:46:43.972Z,952.67
2018-12-15T07:49:10.273Z,952.72
2018-12-15T07:51:36.561Z,952.76
2018-12-15T07:54:02.849Z,952.75
2018-12-15T07:56:29.131Z,952.78
2018-12-15T07:58:55.503Z,952.82
2018-12-15T08:01:21.780Z,952.84
2018-12-15T08:03:48.083Z,952.82
2018-12-15T08:06:14.384Z,952.94
2018-12-15T08:08:40.689Z,953.00
2018-12-15T08:11:06.969Z,952.98
2018-12-15T08:13:33.281Z,952.98
2018-12-15T08:15:59.558Z,952.97
2018-12-15T08:18:25.866Z,952.91
2018-12-15T08:20:52.157Z,952.91
2018-12-15T08:23:18.446Z,952.93
2018-12-15T08:25:44.732Z,952.86
2018-12-15T08:28:11.065Z,952.93
2018-12-15T08:30:37.370Z,952.89
2018-12-15T08:33:03.655Z,952.92
2018-12-15T08:35:29.942Z,953.00
2018-12-15T08:37:56.262Z,953.00
2018-12-15T08:40:22.543Z,953.00
2018-12-15T08:42:48.852Z,952.99
2018-12-15T08:45:15.148Z,952.95
2018-12-15T08:47:41.516Z,953.02
2018-12-15T08:50:07.741Z,952.91
2018-12-15T08:52:34.043Z,952.92
2018-12-15T08:55:00.348Z,952.94
2018-12-15T08:57:26.638Z,952.95
2018-12-15T08:59:52.934Z,952.89
2018-12-15T09:02:19.224Z,952.92
2018-12-15T09:04:45.514Z,952.93
2018-12-15T09:07:11.822Z,952.91
2018-12-15T09:09:38.164Z,952.85
2018-12-15T09:12:04.481Z,952.73
2018-12-15T09:14:30.765Z,952.82
2018-12-15T09:16:57.072Z,952.83
2018-12-15T09:19:23.375Z,952.66
2018-12-15T09:21:49.680Z,952.76
2018-12-15T09:24:15.990Z,952.83
2018-12-15T09:26:42.310Z,952.70
2018-12-15T09:29:08.560Z,952.66
2018-12-15T09:31:34.855Z,952.59
2018-12-15T09:34:01.159Z,952.54
2018-12-15T09:36:27.447Z,952.57
2018-12-15T09:38:53.787Z,952.50
2018-12-15T09:41:20.106Z,952.49
2018-12-15T09:43:46.392Z,952.41
2018-12-15T09:46:12.686Z,952.62
2018-12-15T09:48:39.002Z,952.59
2018-12-15T09:51:05.321Z,952.57
2018-12-15T09:53:31.601Z,952.53
2018-12-15T09:55:57.871Z,952.49
2018-12-15T09:58:24.189Z,952.42
2018-12-15T10:00:50.554Z,952.37
2018-12-15T10:03:16.848Z,952.37
2018-12-15T10:05:43.181Z,952.49
2018-12-15T10:08:09.469Z,952.55
2018-12-15T10:10:35.770Z,952.40
2018-12-15T10:13:02.115Z,952.59
2018-12-15T10:15:28.408Z,952.44
2018-12-15T10:17:54.769Z,952.35
2018-12-15T10:20:21.055Z,952.38
2018-12-15T10:22:47.340Z,952.45
2018-12-15T10:25:13.644Z,952.39
2018-12-15T10:27:39.939Z,952.45
2018-12-15T10:30:07.950Z,952.38
2018-12-15T10:32:34.241Z,952.30
2018-12-15T10:35:00.525Z,952.24
2018-12-15T10:37:26.806Z,952.23
2018-12-15T10:39:53.083Z,952.16
2018-12-15T10:42:19.402Z,952.08
2018-12-15T10:44:45.708Z,952.04
2018-12-15T10:47:11.997Z,951.98
2018-12-15T10:49:38.305Z,952.02
2018-12-15T10:52:04.615Z,951.93
2018-12-15T10:54:30.906Z,951.91
2018-12-15T10:56:57.200Z,951.90
2018-12-15T10:59:23.495Z,951.83
2018-12-15T11:01:49.776Z,951.81
2018-12-15T11:04:16.073Z,951.88
2018-12-15T11:06:42.352Z,951.72
2018-12-15T11:09:08.665Z,951.67
2018-12-15T11:11:34.952Z,951.51
2018-12-15T11:14:01.267Z,951.57
2018-12-15T11:16:27.555Z,951.59
2018-12-15T11:18:53.856Z,951.47
2018-12-15T11:21:20.164Z,951.52
2018-12-15T11:23:46.667Z,951.46
2018-12-15T11:26:12.953Z,951.54
2018-12-15T11:28:39.978Z,951.39
2018-12-15T11:31:06.287Z,951.40
2018-12-15T11:33:32.558Z,951.51
2018-12-15T11:35:58.908Z,951.41
2018-12-15T11:38:25.174Z,951.40
2018-12-15T11:40:51.460Z,951.32
2018-12-15T11:43:17.772Z,951.28
2018-12-15T11:45:44.047Z,951.39
2018-12-15T11:48:10.337Z,951.35
2018-12-15T11:50:36.617Z,951.38
2018-12-15T11:53:02.946Z,951.34
2018-12-15T11:55:29.241Z,951.30
2018-12-15T11:57:55.547Z,951.27
2018-12-15T12:00:21.842Z,951.27
2018-12-15T12:02:48.157Z,951.14
2018-12-15T12:05:14.458Z,951.08
2018-12-15T12:07:40.732Z,951.03
2018-12-15T12:10:07.036Z,950.99
2018-12-15T12:12:33.346Z,951.02
2018-12-15T12:14:59.686Z,950.88
2018-12-15T12:17:26.002Z,950.91
2018-12-15T12:19:52.293Z,950.96
2018-12-15T12:22:18.574Z,950.88
2018-12-15T12:24:44.880Z,950.80
2018-12-15T12:27:11.184Z,950.79
2018-12-15T12:29:37.470Z,950.88
2018-12-15T12:32:03.780Z,950.83
2018-12-15T12:34:30.067Z,950.93
2018-12-15T12:36:56.367Z,950.91
2018-12-15T12:39:22.655Z,951.03
2018-12-15T12:41:48.980Z,950.95
2018-12-15T12:44:15.275Z,950.94
2018-12-15T12:46:41.562Z,950.90
2018-12-15T12:49:07.850Z,950.88
2018-12-15T12:51:34.145Z,950.95
2018-12-15T12:54:00.429Z,950.90
2018-12-15T12:56:26.726Z,950.93
2018-12-15T12:58:53.037Z,950.96
2018-12-15T13:01:19.331Z,950.92
2018-12-15T13:03:45.621Z,950.89
2018-12-15T13:06:11.937Z,950.95
2018-12-15T13:08:38.236Z,951.03
2018-12-15T13:11:04.560Z,951.07
2018-12-15T13:13:30.862Z,951.07
2018-12-15T13:15:57.170Z,951.14
2018-12-15T13:18:23.456Z,951.01
2018-12-15T13:20:49.728Z,951.05
2018-12-15T13:23:16.011Z,950.99
2018-12-15T13:25:42.322Z,951.02
2018-12-15T13:28:08.625Z,951.09
2018-12-15T13:30:34.990Z,951.05
2018-12-15T13:33:01.230Z,951.01
2018-12-15T13:35:27.547Z,950.99
2018-12-15T13:37:53.845Z,951.02
2018-12-15T13:40:20.168Z,951.15
2018-12-15T13:42:46.495Z,951.10
2018-12-15T13:45:12.801Z,951.15
2018-12-15T13:47:39.044Z,951.07
2018-12-15T13:50:10.169Z,951.09
2018-12-15T13:52:31.598Z,951.01
2018-12-15T13:54:57.888Z,951.12
2018-12-15T13:57:24.200Z,951.04
2018-12-15T13:59:50.473Z,951.03
2018-12-15T14:02:16.774Z,951.12
2018-12-15T14:04:43.082Z,951.18
2018-12-15T14:07:09.360Z,951.20
2018-12-15T14:09:35.675Z,951.09
2018-12-15T14:12:01.999Z,951.18
2018-12-15T14:14:28.275Z,951.10
2018-12-15T14:16:54.576Z,951.13
2018-12-15T14:19:20.943Z,951.09
2018-12-15T14:21:47.226Z,951.04
2018-12-15T14:24:13.525Z,950.92
2018-12-15T14:26:39.800Z,950.99
2018-12-15T14:29:06.075Z,951.07
2018-12-15T14:31:32.400Z,951.01
2018-12-15T14:33:58.666Z,951.02
2018-12-15T14:36:24.950Z,950.96
2018-12-15T14:38:51.255Z,950.93
2018-12-15T14:41:17.584Z,950.90
2018-12-15T14:43:43.897Z,950.87
2018-12-15T14:46:10.175Z,950.81
2018-12-15T14:48:36.473Z,950.85
2018-12-15T14:51:02.745Z,950.80
2018-12-15T14:53:29.051Z,950.88
2018-12-15T14:55:56.197Z,950.79
2018-12-15T14:58:21.616Z,950.88
2018-12-15T15:00:47.907Z,950.80
2018-12-15T15:03:14.200Z,950.81
2018-12-15T15:05:40.503Z,950.83
2018-12-15T15:08:06.805Z,950.84
2018-12-15T15:10:33.113Z,950.79
2018-12-15T15:12:59.420Z,950.87
2018-12-15T15:15:25.717Z,950.90
2018-12-15T15:17:52.033Z,950.75
2018-12-15T15:20:18.331Z,950.67
2018-12-15T15:22:44.657Z,950.71
2018-12-15T15:25:10.936Z,950.73
2018-12-15T15:27:37.201Z,950.63
2018-12-15T15:30:07.510Z,950.70
2018-12-15T15:32:33.804Z,950.76
2018-12-15T15:35:00.101Z,950.83
2018-12-15T15:37:26.394Z,950.71
2018-12-15T15:39:52.740Z,950.79
2018-12-15T15:42:19.037Z,950.91
2018-12-15T15:44:45.317Z,950.89
2018-12-15T15:47:11.617Z,950.90
2018-12-15T15:49:37.912Z,950.93
2018-12-15T15:52:04.241Z,950.78
2018-12-15T15:54:30.522Z,950.77
2018-12-15T15:56:56.821Z,950.70
2018-12-15T15:59:23.100Z,950.79
2018-12-15T16:01:49.376Z,950.66
2018-12-15T16:04:15.660Z,950.58
2018-12-15T16:06:41.953Z,950.60
2018-12-15T16:09:08.243Z,950.69
2018-12-15T16:11:34.541Z,950.79
2018-12-15T16:14:00.845Z,950.77
2018-12-15T16:16:27.173Z,950.68
2018-12-15T16:18:53.463Z,950.65
2018-12-15T16:21:19.746Z,950.70
2018-12-15T16:23:46.054Z,950.57
2018-12-15T16:26:12.349Z,950.74
2018-12-15T16:28:38.653Z,950.81
2018-12-15T16:31:04.954Z,950.80
2018-12-15T16:33:31.224Z,950.75
2018-12-15T16:35:57.529Z,950.76
2018-12-15T16:38:23.831Z,950.76
2018-12-15T16:40:50.148Z,950.74
2018-12-15T16:43:16.431Z,950.65
2018-12-15T16:45:42.719Z,950.64
2018-12-15T16:48:09.012Z,950.69
2018-12-15T16:50:35.305Z,950.68
2018-12-15T16:53:01.589Z,950.72
2018-12-15T16:55:27.888Z,950.71
2018-12-15T16:57:54.283Z,950.66
2018-12-15T17:00:20.573Z,950.70
2018-12-15T17:02:46.878Z,950.74
2018-12-15T17:05:13.185Z,950.71
2018-12-15T17:07:39.486Z,950.67
2018-12-15T17:10:05.793Z,950.72
2018-12-15T17:12:32.076Z,950.73
2018-12-15T17:14:58.360Z,950.79
2018-12-15T17:17:24.697Z,950.75
2018-12-15T17:19:50.985Z,950.72
2018-12-15T17:22:17.268Z,950.66
2018-12-15T17:24:43.577Z,950.68
2018-12-15T17:27:09.868Z,950.64
2018-12-15T17:29:36.156Z,950.74
2018-12-15T17:32:02.980Z,950.73
2018-12-15T17:34:29.389Z,950.79
2018-12-15T17:36:55.671Z,950.62
2018-12-15T17:39:21.969Z,950.62
2018-12-15T17:41:48.292Z,950.64
2018-12-15T17:44:14.601Z,950.57
2018-12-15T17:46:40.904Z,950.51
2018-12-15T17:49:07.257Z,950.68
2018-12-15T17:51:33.532Z,950.63
2018-12-15T17:53:59.804Z,950.64
2018-12-15T17:56:26.105Z,950.66
2018-12-15T17:58:52.462Z,950.69
2018-12-15T18:01:18.771Z,950.78
2018-12-15T18:03:45.061Z,950.81
2018-12-15T18:06:11.375Z,950.80
2018-12-15T18:08:37.671Z,950.78
2018-12-15T18:11:04.014Z,950.71
2018-12-15T18:13:30.295Z,950.66
2018-12-15T18:15:56.606Z,950.60
2018-12-15T18:18:22.908Z,950.52
2018-12-15T18:20:49.202Z,950.60
2018-12-15T18:23:15.506Z,950.60
2018-12-15T18:25:41.801Z,950.54
2018-12-15T18:28:08.127Z,950.63
2018-12-15T18:30:34.434Z,950.68
2018-12-15T18:33:00.729Z,950.78
2018-12-15T18:35:27.392Z,950.87
2018-12-15T18:37:53.676Z,950.80
2018-12-15T18:40:19.989Z,950.85
2018-12-15T18:42:46.280Z,950.82
2018-12-15T18:45:12.542Z,950.87
2018-12-15T18:47:38.820Z,950.75
2018-12-15T18:50:05.130Z,950.70
2018-12-15T18:52:31.463Z,950.72
2018-12-15T18:54:57.752Z,950.89
2018-12-15T18:57:24.053Z,950.69
2018-12-15T18:59:50.351Z,950.60
2018-12-15T19:02:16.653Z,950.68
2018-12-15T19:04:42.931Z,950.67
2018-12-15T19:07:09.231Z,950.59
2018-12-15T19:09:35.523Z,950.65
2018-12-15T19:12:01.863Z,950.49
2018-12-15T19:14:28.156Z,950.51
2018-12-15T19:16:54.443Z,950.48
2018-12-15T19:19:20.757Z,950.56
2018-12-15T19:21:47.047Z,950.58
2018-12-15T19:24:13.341Z,950.62
2018-12-15T19:26:39.640Z,950.56
2018-12-15T19:29:05.928Z,950.49
2018-12-15T19:31:32.215Z,950.64
2018-12-15T19:33:58.551Z,950.51
2018-12-15T19:36:24.815Z,950.52
2018-12-15T19:38:51.115Z,950.44
2018-12-15T19:41:17.421Z,950.56
2018-12-15T19:43:43.696Z,950.49
2018-12-15T19:46:09.985Z,950.41
2018-12-15T19:48:36.306Z,950.32
2018-12-15T19:51:02.599Z,950.40
2018-12-15T19:53:28.880Z,950.42
2018-12-15T19:55:55.180Z,950.50
2018-12-15T19:58:21.470Z,950.37
2018-12-15T20:00:47.761Z,950.48
2018-12-15T20:03:14.083Z,950.37
2018-12-15T20:05:40.416Z,950.42
2018-12-15T20:08:06.703Z,950.32
2018-12-15T20:10:32.986Z,950.40
2018-12-15T20:12:59.415Z,950.31
2018-12-15T20:15:25.714Z,950.33
2018-12-15T20:17:52.042Z,950.29
2018-12-15T20:20:18.338Z,950.24
2018-12-15T20:22:44.640Z,950.51
2018-12-15T20:25:10.913Z,950.35
2018-12-15T20:27:37.198Z,950.34
2018-12-15T20:30:10.506Z,950.42
2018-12-15T20:32:36.782Z,950.44
2018-12-15T20:35:03.155Z,950.49
2018-12-15T20:37:29.475Z,950.48
2018-12-15T20:39:55.756Z,950.44
2018-12-15T20:42:22.106Z,950.53
2018-12-15T20:44:48.452Z,950.56
2018-12-15T20:47:14.731Z,950.54
2018-12-15T20:49:41.019Z,950.40
2018-12-15T20:52:07.437Z,950.33
2018-12-15T20:54:33.675Z,950.37
2018-12-15T20:56:59.977Z,950.27
2018-12-15T20:59:26.271Z,950.33
2018-12-15T21:01:52.560Z,950.40
2018-12-15T21:04:18.923Z,950.43
2018-12-15T21:06:45.257Z,950.27
2018-12-15T21:09:11.551Z,950.27
2018-12-15T21:11:37.841Z,950.31
2018-12-15T21:14:04.124Z,950.30
2018-12-15T21:16:30.458Z,950.18
2018-12-15T21:18:56.737Z,950.26
2018-12-15T21:21:23.072Z,950.24
2018-12-15T21:23:49.515Z,950.22
2018-12-15T21:26:15.870Z,950.33
2018-12-15T21:28:42.183Z,950.16
2018-12-15T21:31:08.472Z,950.06
2018-12-15T21:33:34.767Z,949.92
2018-12-15T21:36:01.108Z,949.84
2018-12-15T21:38:27.384Z,949.76
2018-12-15T21:40:53.679Z,949.85
2018-12-15T21:43:19.965Z,949.94
2018-12-15T21:45:46.269Z,950.03
2018-12-15T21:48:12.538Z,949.97
2018-12-15T21:50:38.831Z,950.07
2018-12-15T21:53:05.153Z,950.12
2018-12-15T21:55:31.445Z,950.16
2018-12-15T21:57:57.758Z,950.05
2018-12-15T22:00:27.047Z,950.02
2018-12-15T22:02:53.323Z,950.03
2018-12-15T22:05:19.616Z,950.04
2018-12-15T22:07:45.902Z,950.03
2018-12-15T22:10:12.215Z,950.02
2018-12-15T22:12:38.492Z,949.92
2018-12-15T22:15:04.782Z,949.92
2018-12-15T22:17:31.083Z,949.80
2018-12-15T22:19:57.376Z,949.78
2018-12-15T22:22:23.688Z,949.82
2018-12-15T22:24:49.993Z,949.81
2018-12-15T22:27:16.295Z,949.83
2018-12-15T22:29:42.583Z,949.89
2018-12-15T22:32:08.871Z,949.80
2018-12-15T22:34:35.185Z,949.72
2018-12-15T22:37:01.478Z,949.77
2018-12-15T22:39:27.793Z,949.63
2018-12-15T22:41:54.095Z,949.65
2018-12-15T22:44:20.393Z,949.70
2018-12-15T22:46:46.747Z,949.70
2018-12-15T22:49:12.998Z,949.73
2018-12-15T22:51:39.275Z,949.72
2018-12-15T22:54:05.617Z,949.72
2018-12-15T22:56:31.897Z,949.65
2018-12-15T22:58:58.171Z,949.67
2018-12-15T23:01:24.460Z,949.60
2018-12-15T23:03:50.734Z,949.61
2018-12-15T23:06:17.078Z,949.60
2018-12-15T23:08:43.393Z,949.56
2018-12-15T23:11:09.692Z,949.60
2018-12-15T23:13:35.983Z,949.53
2018-12-15T23:16:02.290Z,949.53
2018-12-15T23:18:28.587Z,949.57
2018-12-15T23:20:56.225Z,949.47
2018-12-15T23:23:21.185Z,949.45
2018-12-15T23:25:47.462Z,949.42
2018-12-15T23:28:13.842Z,949.39
2018-12-15T23:30:40.112Z,949.35
2018-12-15T23:33:06.421Z,949.50
2018-12-15T23:35:32.712Z,949.47
2018-12-15T23:37:59.038Z,949.49
2018-12-15T23:40:25.341Z,949.48
2018-12-15T23:42:51.881Z,949.42
2018-12-15T23:45:18.161Z,949.35
2018-12-15T23:47:44.454Z,949.31
2018-12-15T23:50:10.740Z,949.39
2018-12-15T23:52:37.041Z,949.38
2018-12-15T23:55:03.336Z,949.38
2018-12-15T23:57:29.630Z,949.32
2018-12-15T23:59:55.927Z,949.28
